This is the latest recevied weather packets stored in our database for station/object SP1BMW-13. If no packets are shown the sender has not sent any weather packets the latest 10 day(s).
| Time | Temp. | Humidity | Pressure | Rain* | Wind** | Luminosity | Snow |
|---|---|---|---|---|---|---|---|
| 1787749694 | 22.78° C | 48% | 1021 hPa | 0 mm | 0 m/s | 598 W/m² | - |
| 1787749634 | 22.78° C | 48% | 1020.9 hPa | 0 mm | 0.89 m/s, 327° | 167 W/m² | - |
| 1787749574 | 22.78° C | 48% | 1021 hPa | 0 mm | 0.89 m/s, 43° | 147 W/m² | - |
| 1787749514 | 23.33° C | 47% | 1021 hPa | 0 mm | 0.89 m/s, 12° | 131 W/m² | - |
| 1787749454 | 23.33° C | 49% | 1021.1 hPa | 0 mm | 0 m/s | 126 W/m² | - |
| 1787749394 | 23.33° C | 47% | 1021.1 hPa | 0 mm | 0 m/s | 131 W/m² | - |
| 1787749334 | 23.33° C | 47% | 1021 hPa | 0 mm | 0.45 m/s, 40° | 384 W/m² | - |
| 1787749274 | 23.33° C | 47% | 1021 hPa | 0 mm | 0.89 m/s, 49° | 133 W/m² | - |
| 1787749214 | 23.33° C | 46% | 1020.8 hPa | 0 mm | 1.34 m/s, 47° | 132 W/m² | - |
| 1787749154 | 23.89° C | 45% | 1021.1 hPa | 0 mm | 1.34 m/s, 48° | 136 W/m² | - |
| 1787749094 | 23.89° C | 48% | 1020.9 hPa | 0 mm | 0.45 m/s, 324° | 135 W/m² | - |
| 1787749034 | 23.89° C | 44% | 1021 hPa | 0 mm | 1.34 m/s, 43° | 137 W/m² | - |
| 1787748974 | 24.44° C | 45% | 1021 hPa | 0 mm | 0.89 m/s, 34° | 141 W/m² | - |
| 1787748914 | 24.44° C | 45% | 1021 hPa | 0 mm | 0.45 m/s, 5° | 275 W/m² | - |
| 1787748854 | 24.44° C | 45% | 1020.9 hPa | 0 mm | 0.89 m/s, 51° | 155 W/m² | - |
| 1787748794 | 24.44° C | 44% | 1021 hPa | 0 mm | 1.34 m/s, 55° | 160 W/m² | - |
| 1787748734 | 24.44° C | 44% | 1021 hPa | 0 mm | 0.89 m/s, 95° | 675 W/m² | - |
| 1787748674 | 24.44° C | 44% | 1021 hPa | 0 mm | 0.89 m/s, 123° | 662 W/m² | - |
| 1787748614 | 23.89° C | 47% | 1021 hPa | 0 mm | 0.45 m/s, 34° | 663 W/m² | - |
| 1787748554 | 23.89° C | 47% | 1021 hPa | 0 mm | 0.45 m/s, 45° | 666 W/m² | - |
| 1787748494 | 23.89° C | 46% | 1021.1 hPa | 0 mm | 1.34 m/s, 4° | 656 W/m² | - |
| 1787748434 | 23.89° C | 47% | 1021 hPa | 0 mm | 0 m/s | 658 W/m² | - |
| 1787748374 | 23.33° C | 48% | 1021.2 hPa | 0 mm | 1.34 m/s, 166° | 652 W/m² | - |
| 1787748314 | 23.33° C | 48% | 1021 hPa | 0 mm | 1.34 m/s, 95° | 644 W/m² | - |
| 1787748254 | 23.33° C | 48% | 1021.1 hPa | 0 mm | 0.89 m/s, 54° | 634 W/m² | - |
* Rain latest hour (hover to see other rain measurements)
** Current wind speed in m/s (hover to see current wind gust speed)